Desert Aire, Washington
Current Conditions -  °F | °C
As of 4:56 AM on Saturday 20 Dec 2014 (Local Time) from K1YT Reporting Station
Light Rain Light Rain  
Wind Chill: 36°   Ceiling: 800
Heat Index: 36°   Visibility: 6mi
Dew Point: 35°   Wind: 2mph
Humidity: 98%   Direction: 120°ESE
Pressure: 29.85"   Gusts: NA
Location:  46.6873°N, 119.887°W
Report Text: K1YT 201256Z AUTO 12002KT 6SM -RA BKN008 OVC026 02/02 A2985 RMK AO2 SLPNO P0002 T00210018
Loading
Personal Weather Stations






























Interactive Weather Map New forecast layout! Learn more

10-Day Weather Forecast

Advertisements
Track Severe Weather on mobile